الصفحة الرئيسية
METAR-TAF:

METAR-TAF

مطار :

مطار مراكش المنارة الدولي

مراكش, المغرب

دائرة عرض: 31-37N, خط طول: 008-02W, ارتفاع: 468 متر

مراقبة الطقس الحالي

تاريخ ووقت الإصدار 27 دقيقة قبل الساعة 20:00UTC
ريح 4 عقدة من الغرب/الجنوب الغربي
درجة الحرارة 17°درجة مئوية
الرطوبة 59%
ضغط 1010 hPa
الرؤية 10 كم أو أكثر
غيوم متفرقة على ارتفاع 2300 قدم

METAR: GMMX 212000Z 25004KT 9999 SCT023 17/09 Q1010 NOSIG

زمن: 21:27 (20:27 UTC)

توقعات

تاريخ ووقت الإصدار 3ساعات و 27 دقيقة قبل الساعة 17:00UTC
التوقعات صالحة من21 الساعة 18 UTC إلى 22 الساعة 24 UTC
ريح 16 عقدة من الغرب/الشمال الغربي
الرؤية: 8000 متر
غيوم مفككة على ارتفاع 2000 قدم
أصبح
من 22 الساعة 00 UTC إلى 22 الساعة 03 UTC
ريح 5 عقدة من الغرب/الجنوب الغربي
غيوم متفرقة على ارتفاع 1600 قدم
نظرية الاحتمالات 30% :
مؤقت
من 22 الساعة 06 UTC إلى 22 الساعة 10 UTC
الرؤية: 5000 متر
غيوم مفككة على ارتفاع 1000 قدم
أصبح
من 22 الساعة 15 UTC إلى 22 الساعة 18 UTC
ريح 15 عقدة من الشمال الغربي

TAF: GMMX 211700Z 2118/2224 30016KT 8000 BKN020 BECMG 2200/2203 24005KT SCT016 PROB30 TEMPO 2206/2210 5000 BKN010 BECMG 2215/2218 32015KT

أرصاد الطقس والتوقعات من أكثر من 4000 مطار (تقارير الطقس للمطار METAR والتنبؤ بالطقس بالمطارTAF).

المحطات المتاحة هي النقط الصفراء والحمراء على الخريطة.

حرك المؤشر فوق النقطة لمعرفة اسم المحطة.

ثم انقر لمعرفة أرصاد وتوقعات الطقس.

لتغيير الخارطة: اضغط على الأزرار الخضراء مع رمز الصليب الأسود للتكبير. على الزر الأخضر مع شرطة للتصغير، أو على الأسهم الخضراء للخرائط المجاورة.


METAR-TAF: